Whitewater, Colorado
Current Conditions -  °F | °C
As of 8:53 AM on Monday 24 Nov 2014 (Local Time) from KGJT Reporting Station
Overcast Overcast  
Wind Chill: -8°   Ceiling: 6500
Heat Index: -3°   Visibility: 10mi
Dew Point: -8°   Wind: 7mph
Humidity: 69%   Direction: 130°SE
Pressure: 30.18"   Gusts: NA
Location:  38.99°N, 108.45°W
Report Text: KGJT 241553Z 13006KT 10SM OVC065 M03/M08 A3018 RMK AO2 SLP247 T10331083
Loading
Personal Weather Stations






























Interactive Weather Map New forecast layout! Learn more

10-Day Weather Forecast

Advertisements
Track Severe Weather on mobile